Time;durP1;ratioP1;P1;durP2;ratioP2;P2;SDS_P1;SDS_P2;PMS_P1;PMS_P2;Temp;Humidity;BMP_temperature;BMP_pressure;BME280_temperature;BME280_humidity;BME280_pressure;Samples;Min_cycle;Max_cycle;Signal;HPM_P1;HPM_P2
2023/06/18 00:00:15;;;;;;;12.98;7.28;;;;;;;;;;6287125;28;20298;-68
2023/06/18 00:03:20;;;;;;;8.38;7.50;;;;;;;;;;6287625;28;20292;-70
2023/06/18 00:06:25;;;;;;;7.75;7.00;;;;;;;;;;6288427;28;20496;-69
2023/06/18 00:09:31;;;;;;;10.48;7.45;;;;;;;;;;6287668;28;20299;-71
2023/06/18 00:12:36;;;;;;;13.63;7.45;;;;;;;;;;6287572;28;20240;-70
2023/06/18 00:15:40;;;;;;;13.50;7.90;;;;;;;;;;6285614;28;20292;-69
2023/06/18 00:18:45;;;;;;;12.02;8.18;;;;;;;;;;6286938;28;20295;-68
2023/06/18 00:21:49;;;;;;;14.23;8.30;;;;;;;;;;6287886;28;20245;-70
2023/06/18 00:24:56;;;;;;;12.27;8.95;;;;;;;;;;6287330;28;20476;-69
2023/06/18 00:28:00;;;;;;;11.45;8.23;;;;;;;;;;6286465;28;20451;-69
2023/06/18 00:31:07;;;;;;;15.07;8.93;;;;;;;;;;6285859;28;20642;-70
2023/06/18 00:34:12;;;;;;;10.90;8.93;;;;;;;;;;6286856;28;20294;-69
2023/06/18 00:37:20;;;;;;;10.35;8.50;;;;;;;;;;6287903;28;20271;-70
2023/06/18 00:40:26;;;;;;;16.77;9.00;;;;;;;;;;6286510;28;20303;-69
2023/06/18 00:43:31;;;;;;;16.35;9.13;;;;;;;;;;6285134;28;20287;-70
2023/06/18 00:46:36;;;;;;;15.05;8.77;;;;;;;;;;6285310;28;20267;-69
2023/06/18 00:49:42;;;;;;;15.02;7.88;;;;;;;;;;6286301;28;20291;-69
2023/06/18 00:52:48;;;;;;;8.80;7.93;;;;;;;;;;6286095;28;20240;-71
2023/06/18 00:55:56;;;;;;;9.75;8.15;;;;;;;;;;6284868;28;20276;-69
2023/06/18 00:59:01;;;;;;;11.10;7.18;;;;;;;;;;6286244;28;20298;-69
2023/06/18 01:02:07;;;;;;;8.60;6.85;;;;;;;;;;6287884;22;20312;-75
2023/06/18 01:05:13;;;;;;;8.32;7.47;;;;;;;;;;6246166;28;20284;-75
2023/06/18 01:08:23;;;;;;;10.15;7.53;;;;;;;;;;6235386;28;20300;-76
2023/06/18 01:11:37;;;;;;;8.75;7.22;;;;;;;;;;6235858;28;20254;-76
2023/06/18 01:14:50;;;;;;;9.23;7.57;;;;;;;;;;6235623;28;20589;-76
2023/06/18 01:17:56;;;;;;;8.73;7.25;;;;;;;;;;6217940;28;20296;-75
2023/06/18 01:21:05;;;;;;;12.65;7.53;;;;;;;;;;6235521;28;20249;-76
2023/06/18 01:24:14;;;;;;;9.07;7.63;;;;;;;;;;6233428;28;20300;-76
2023/06/18 01:27:21;;;;;;;9.75;7.20;;;;;;;;;;6234993;28;20245;-76
2023/06/18 01:30:26;;;;;;;9.32;7.70;;;;;;;;;;6235396;28;20292;-76
2023/06/18 01:33:33;;;;;;;7.35;6.78;;;;;;;;;;6235063;28;20296;-75
2023/06/18 01:36:47;;;;;;;9.52;7.97;;;;;;;;;;6235375;28;20273;-75
2023/06/18 01:39:58;;;;;;;9.38;8.05;;;;;;;;;;6233145;28;20292;-76
2023/06/18 01:43:08;;;;;;;10.88;8.05;;;;;;;;;;6234847;28;20296;-75
2023/06/18 01:46:14;;;;;;;12.77;6.95;;;;;;;;;;6235179;28;20245;-75
2023/06/18 01:49:20;;;;;;;8.52;7.72;;;;;;;;;;6217078;28;20304;-76
2023/06/18 01:52:26;;;;;;;9.27;8.27;;;;;;;;;;6217441;28;20541;-76
2023/06/18 01:55:33;;;;;;;8.13;7.30;;;;;;;;;;6236158;28;20296;-76
2023/06/18 01:58:42;;;;;;;11.13;7.55;;;;;;;;;;6234433;28;20300;-76
2023/06/18 02:01:48;;;;;;;8.57;7.70;;;;;;;;;;6216649;28;20447;-76
2023/06/18 02:04:53;;;;;;;9.85;8.00;;;;;;;;;;6216880;28;20288;-76
2023/06/18 02:07:58;;;;;;;10.20;7.85;;;;;;;;;;6216422;28;20295;-76
2023/06/18 02:11:03;;;;;;;8.45;7.40;;;;;;;;;;6234979;28;20253;-76
2023/06/18 02:14:09;;;;;;;12.48;7.30;;;;;;;;;;6216305;28;20581;-76
2023/06/18 02:17:14;;;;;;;9.10;8.20;;;;;;;;;;6216877;28;20292;-76
2023/06/18 02:20:19;;;;;;;8.45;7.45;;;;;;;;;;6234313;28;20296;-77
2023/06/18 02:23:25;;;;;;;11.98;8.05;;;;;;;;;;6234318;28;20288;-76
2023/06/18 02:26:30;;;;;;;8.90;8.00;;;;;;;;;;6234350;28;20499;-76
2023/06/18 02:29:36;;;;;;;8.73;7.85;;;;;;;;;;6232844;28;20292;-76
2023/06/18 02:32:41;;;;;;;9.57;8.00;;;;;;;;;;6216349;28;20272;-76
2023/06/18 02:35:46;;;;;;;15.50;8.70;;;;;;;;;;6216495;28;20272;-76
2023/06/18 02:38:52;;;;;;;9.15;8.25;;;;;;;;;;6224518;28;20320;-76
2023/06/18 02:41:57;;;;;;;8.80;7.85;;;;;;;;;;6241262;28;20455;-76
2023/06/18 02:45:03;;;;;;;11.48;8.80;;;;;;;;;;6224556;28;20300;-76
2023/06/18 02:48:08;;;;;;;10.05;7.95;;;;;;;;;;6223795;28;20300;-76
2023/06/18 02:51:13;;;;;;;9.73;8.52;;;;;;;;;;6242200;28;20241;-76
2023/06/18 02:54:17;;;;;;;8.85;8.05;;;;;;;;;;6241768;28;20454;-75
2023/06/18 02:57:22;;;;;;;12.38;8.25;;;;;;;;;;6242251;28;20348;-75
2023/06/18 03:00:28;;;;;;;11.20;7.68;;;;;;;;;;6224862;28;20307;-75
2023/06/18 03:03:32;;;;;;;9.07;8.18;;;;;;;;;;6207838;28;20290;-75
2023/06/18 03:06:37;;;;;;;13.65;8.77;;;;;;;;;;6227262;28;20428;-75
2023/06/18 03:09:42;;;;;;;10.90;8.02;;;;;;;;;;6210966;28;20301;-75
2023/06/18 03:12:47;;;;;;;9.38;8.48;;;;;;;;;;6208985;28;20273;-75
2023/06/18 03:16:02;;;;;;;9.15;8.30;;;;;;;;;;6208133;28;20606;-76
2023/06/18 03:19:10;;;;;;;9.02;8.18;;;;;;;;;;6208062;28;20297;-76
2023/06/18 03:22:16;;;;;;;9.20;8.32;;;;;;;;;;6208674;28;20557;-77
2023/06/18 03:25:21;;;;;;;10.07;8.13;;;;;;;;;;6193422;28;20301;-76
2023/06/18 03:28:26;;;;;;;10.82;8.90;;;;;;;;;;6212182;28;20297;-76
2023/06/18 03:31:32;;;;;;;9.65;8.75;;;;;;;;;;6225534;28;20270;-76
2023/06/18 03:34:42;;;;;;;11.02;8.63;;;;;;;;;;6207661;28;20305;-76
2023/06/18 03:37:48;;;;;;;10.50;9.02;;;;;;;;;;6224960;28;20286;-76
2023/06/18 03:40:54;;;;;;;10.02;8.43;;;;;;;;;;6208102;28;20293;-76
2023/06/18 03:43:58;;;;;;;11.93;9.07;;;;;;;;;;6207725;28;20303;-76
2023/06/18 03:47:05;;;;;;;10.63;8.65;;;;;;;;;;6208599;28;20409;-76
2023/06/18 03:50:11;;;;;;;11.48;9.13;;;;;;;;;;6203432;28;20321;-76
2023/06/18 03:53:16;;;;;;;12.23;9.02;;;;;;;;;;6204155;28;20304;-76
2023/06/18 03:56:23;;;;;;;9.63;8.70;;;;;;;;;;6220596;28;20269;-75
2023/06/18 03:59:28;;;;;;;10.95;9.90;;;;;;;;;;6203943;28;20337;-76
2023/06/18 04:02:34;;;;;;;11.70;9.02;;;;;;;;;;6234919;28;20482;-76
2023/06/18 04:05:40;;;;;;;10.82;9.73;;;;;;;;;;6235597;28;20396;-76
2023/06/18 04:08:45;;;;;;;11.85;9.00;;;;;;;;;;6236861;28;20308;-76
2023/06/18 04:11:51;;;;;;;12.57;10.10;;;;;;;;;;6220200;28;20284;-76
2023/06/18 04:14:55;;;;;;;11.88;9.23;;;;;;;;;;6237086;28;20549;-76
2023/06/18 04:18:02;;;;;;;11.40;9.70;;;;;;;;;;6236903;28;20268;-75
2023/06/18 04:21:06;;;;;;;10.70;9.60;;;;;;;;;;6236168;28;20268;-76
2023/06/18 04:24:12;;;;;;;11.02;9.25;;;;;;;;;;6219177;28;20300;-76
2023/06/18 04:27:17;;;;;;;10.18;9.18;;;;;;;;;;6237235;28;20268;-76
2023/06/18 04:30:22;;;;;;;11.65;9.75;;;;;;;;;;6218822;28;20296;-75
2023/06/18 04:33:29;;;;;;;11.32;9.55;;;;;;;;;;6219008;28;20288;-76
2023/06/18 04:36:36;;;;;;;12.38;9.52;;;;;;;;;;6219682;28;20276;-76
2023/06/18 04:39:41;;;;;;;10.13;9.15;;;;;;;;;;6219317;28;20356;-76
2023/06/18 04:42:46;;;;;;;10.70;9.60;;;;;;;;;;6236666;28;20245;-76
2023/06/18 04:45:57;;;;;;;12.63;8.93;;;;;;;;;;6217746;28;20530;-76
2023/06/18 04:49:04;;;;;;;11.88;9.50;;;;;;;;;;6218456;28;20377;-76
2023/06/18 04:52:10;;;;;;;10.73;9.63;;;;;;;;;;6236884;28;20245;-76
2023/06/18 04:55:16;;;;;;;12.40;9.80;;;;;;;;;;6218084;28;20299;-76
2023/06/18 04:58:21;;;;;;;15.20;9.50;;;;;;;;;;6235952;28;20339;-75
2023/06/18 05:01:29;;;;;;;10.98;9.32;;;;;;;;;;6217345;28;20281;-76
2023/06/18 05:04:35;;;;;;;10.68;9.55;;;;;;;;;;6217933;28;20292;-76
2023/06/18 05:07:40;;;;;;;11.77;9.77;;;;;;;;;;6218589;28;20276;-76
2023/06/18 05:10:45;;;;;;;13.38;9.35;;;;;;;;;;6234344;28;20300;-76
2023/06/18 05:13:50;;;;;;;13.48;9.82;;;;;;;;;;6218012;28;20292;-76
2023/06/18 05:16:55;;;;;;;13.48;10.60;;;;;;;;;;6218529;28;20265;-76
2023/06/18 05:20:04;;;;;;;11.48;10.00;;;;;;;;;;6217673;28;20312;-76
2023/06/18 05:23:09;;;;;;;11.70;9.80;;;;;;;;;;6233942;28;20280;-75
2023/06/18 05:26:15;;;;;;;13.13;9.40;;;;;;;;;;6217586;28;20281;-76
2023/06/18 05:29:20;;;;;;;13.50;9.85;;;;;;;;;;6233530;28;20299;-76
2023/06/18 05:32:27;;;;;;;15.82;9.70;;;;;;;;;;6234299;28;20268;-76
2023/06/18 05:35:33;;;;;;;14.35;9.63;;;;;;;;;;6217052;28;20560;-75
2023/06/18 05:38:39;;;;;;;13.75;9.65;;;;;;;;;;6217262;28;20565;-76
2023/06/18 05:41:43;;;;;;;14.02;9.93;;;;;;;;;;6218089;28;20272;-75
2023/06/18 05:44:49;;;;;;;12.20;10.10;;;;;;;;;;6216702;28;20315;-75
2023/06/18 05:47:53;;;;;;;14.88;10.18;;;;;;;;;;6217832;28;20272;-75
2023/06/18 05:51:07;;;;;;;12.15;9.93;;;;;;;;;;6216284;28;20530;-76
2023/06/18 05:54:12;;;;;;;11.02;9.27;;;;;;;;;;6217020;28;20411;-76
2023/06/18 05:57:17;;;;;;;15.32;9.73;;;;;;;;;;6217764;28;20273;-77
2023/06/18 06:00:21;;;;;;;13.30;9.95;;;;;;;;;;6217177;28;20304;-76
2023/06/18 06:03:28;;;;;;;14.57;10.00;;;;;;;;;;6224726;28;20312;-77
2023/06/18 06:06:36;;;;;;;12.27;10.20;;;;;;;;;;6209265;28;20297;-77
2023/06/18 06:09:41;;;;;;;13.82;9.45;;;;;;;;;;6208413;28;20530;-76
2023/06/18 06:12:46;;;;;;;12.73;9.77;;;;;;;;;;6209013;28;20289;-76
2023/06/18 06:15:51;;;;;;;12.70;9.70;;;;;;;;;;6208487;28;20297;-77
2023/06/18 06:18:56;;;;;;;12.25;9.57;;;;;;;;;;6210265;28;20302;-76
2023/06/18 06:22:02;;;;;;;10.57;9.32;;;;;;;;;;6208812;28;20309;-76
2023/06/18 06:25:07;;;;;;;10.13;8.93;;;;;;;;;;6208705;28;20288;-76
2023/06/18 06:28:12;;;;;;;11.13;8.73;;;;;;;;;;6208408;28;20269;-76
2023/06/18 06:31:19;;;;;;;10.65;9.55;;;;;;;;;;6208909;28;20297;-76
2023/06/18 06:34:24;;;;;;;14.18;9.50;;;;;;;;;;6209863;28;20297;-76
2023/06/18 06:37:32;;;;;;;13.52;10.23;;;;;;;;;;6224391;28;20273;-76
2023/06/18 06:40:39;;;;;;;11.45;9.00;;;;;;;;;;6208339;28;20348;-76
2023/06/18 06:43:44;;;;;;;11.52;8.43;;;;;;;;;;6209570;28;20292;-76
2023/06/18 06:47:11;;;;;;;9.95;8.75;;;;;;;;;;6208734;28;20317;-76
2023/06/18 06:50:34;;;;;;;12.20;8.90;;;;;;;;;;6210811;28;20301;-76
2023/06/18 06:53:49;;;;;;;10.02;8.90;;;;;;;;;;6207882;28;20288;-75
2023/06/18 06:56:55;;;;;;;11.30;9.45;;;;;;;;;;6225445;28;20269;-76
2023/06/18 07:00:00;;;;;;;12.10;9.25;;;;;;;;;;6208531;28;20554;-76
2023/06/18 07:03:05;;;;;;;11.50;8.90;;;;;;;;;;6199506;28;20306;-76
2023/06/18 07:06:09;;;;;;;9.85;8.70;;;;;;;;;;6185993;28;20246;-75
2023/06/18 07:09:16;;;;;;;9.57;8.70;;;;;;;;;;6185686;28;20298;-77
2023/06/18 07:12:20;;;;;;;12.73;8.13;;;;;;;;;;6185462;28;20255;-77
2023/06/18 07:15:25;;;;;;;9.65;8.65;;;;;;;;;;6199960;28;20302;-76
2023/06/18 07:18:30;;;;;;;9.45;8.55;;;;;;;;;;6200306;28;20290;-76
2023/06/18 07:21:35;;;;;;;10.02;8.52;;;;;;;;;;6185851;28;20265;-76
2023/06/18 07:24:41;;;;;;;9.55;8.60;;;;;;;;;;6187998;28;20305;-76
2023/06/18 07:27:45;;;;;;;8.70;7.75;;;;;;;;;;6190569;28;20260;-75
2023/06/18 07:30:50;;;;;;;12.43;8.07;;;;;;;;;;6189894;28;20318;-76
2023/06/18 07:33:55;;;;;;;8.93;7.25;;;;;;;;;;6189310;28;20294;-76
2023/06/18 07:37:00;;;;;;;10.02;7.63;;;;;;;;;;6190298;28;20278;-76
2023/06/18 07:40:07;;;;;;;9.45;7.82;;;;;;;;;;6189687;28;20342;-76
2023/06/18 07:43:12;;;;;;;9.57;8.35;;;;;;;;;;6204197;28;20313;-75
2023/06/18 07:46:17;;;;;;;8.23;7.43;;;;;;;;;;6190215;28;20237;-76
2023/06/18 07:49:22;;;;;;;8.90;7.95;;;;;;;;;;6204044;28;20577;-75
2023/06/18 07:52:26;;;;;;;9.65;8.60;;;;;;;;;;6190164;28;20242;-75
2023/06/18 07:55:32;;;;;;;9.80;7.93;;;;;;;;;;6189442;28;20302;-78
2023/06/18 07:58:37;;;;;;;8.02;7.28;;;;;;;;;;6189359;28;20302;-75
2023/06/18 08:01:42;;;;;;;8.77;7.82;;;;;;;;;;6190151;28;20289;-75
2023/06/18 08:04:46;;;;;;;8.55;7.28;;;;;;;;;;6237552;28;20304;-75
2023/06/18 08:07:51;;;;;;;8.45;7.65;;;;;;;;;;6237909;28;20237;-75
2023/06/18 08:10:57;;;;;;;8.27;7.53;;;;;;;;;;6237380;28;20274;-75
2023/06/18 08:14:03;;;;;;;8.90;8.10;;;;;;;;;;6237283;28;20289;-72
2023/06/18 08:17:08;;;;;;;8.05;7.25;;;;;;;;;;6237841;28;20241;-73
2023/06/18 08:20:13;;;;;;;8.00;7.32;;;;;;;;;;6239281;28;20308;-77
2023/06/18 08:23:17;;;;;;;7.85;7.15;;;;;;;;;;6241152;28;20600;-77
2023/06/18 08:26:23;;;;;;;8.25;7.43;;;;;;;;;;6240864;28;20249;-76
2023/06/18 08:29:28;;;;;;;8.57;7.43;;;;;;;;;;6240953;28;20300;-76
2023/06/18 08:32:32;;;;;;;7.90;7.25;;;;;;;;;;6239824;28;20249;-77
2023/06/18 08:35:38;;;;;;;9.25;8.30;;;;;;;;;;6238394;28;20296;-75
2023/06/18 08:38:42;;;;;;;7.28;6.60;;;;;;;;;;6236864;28;20288;-74
2023/06/18 08:41:49;;;;;;;8.77;7.85;;;;;;;;;;6237609;28;20264;-74
2023/06/18 08:44:54;;;;;;;8.73;7.00;;;;;;;;;;6236680;28;20300;-74
2023/06/18 08:48:00;;;;;;;8.65;6.70;;;;;;;;;;6237126;28;20241;-74
2023/06/18 08:51:17;;;;;;;7.85;7.22;;;;;;;;;;6237489;28;20537;-74
2023/06/18 08:54:27;;;;;;;8.57;7.45;;;;;;;;;;6236633;28;20292;-74
2023/06/18 08:57:36;;;;;;;9.45;8.32;;;;;;;;;;6237052;28;20241;-75
2023/06/18 09:00:41;;;;;;;8.98;8.20;;;;;;;;;;6236429;28;20296;-76
2023/06/18 09:03:46;;;;;;;9.55;8.20;;;;;;;;;;6236410;28;20336;-76
2023/06/18 09:06:50;;;;;;;9.30;8.40;;;;;;;;;;6236840;28;20241;-75
2023/06/18 09:09:57;;;;;;;9.10;7.97;;;;;;;;;;6218390;28;20276;-75
2023/06/18 09:13:04;;;;;;;10.00;8.75;;;;;;;;;;6237091;28;20567;-76
2023/06/18 09:16:09;;;;;;;10.25;9.23;;;;;;;;;;6238286;28;20241;-76
2023/06/18 09:19:16;;;;;;;13.63;9.05;;;;;;;;;;6237305;28;20613;-77
2023/06/18 09:22:21;;;;;;;11.10;9.10;;;;;;;;;;6236322;28;20264;-77
2023/06/18 09:25:35;;;;;;;9.63;8.73;;;;;;;;;;6218078;28;20348;-76
2023/06/18 09:28:41;;;;;;;10.05;8.98;;;;;;;;;;6236018;28;20304;-75
2023/06/18 09:31:46;;;;;;;9.60;8.70;;;;;;;;;;6236323;28;20313;-75
2023/06/18 09:34:50;;;;;;;11.00;8.80;;;;;;;;;;6238360;28;20296;-76
2023/06/18 09:37:55;;;;;;;9.93;8.65;;;;;;;;;;6235567;28;20253;-74
2023/06/18 09:41:00;;;;;;;10.05;8.90;;;;;;;;;;6235783;28;20261;-75
2023/06/18 09:44:08;;;;;;;11.68;8.68;;;;;;;;;;6235621;28;20479;-75
2023/06/18 09:47:12;;;;;;;9.80;8.85;;;;;;;;;;6235835;28;20241;-74
2023/06/18 09:50:27;;;;;;;12.40;9.50;;;;;;;;;;6234643;28;20296;-76
2023/06/18 09:53:34;;;;;;;13.73;10.27;;;;;;;;;;6221663;28;20300;-75
2023/06/18 09:56:39;;;;;;;10.02;9.00;;;;;;;;;;6236389;28;20241;-75
2023/06/18 09:59:45;;;;;;;11.77;9.02;;;;;;;;;;6235408;28;20304;-76
2023/06/18 10:02:50;;;;;;;12.25;9.57;;;;;;;;;;6235760;28;20296;-76
2023/06/18 10:05:55;;;;;;;13.70;8.82;;;;;;;;;;6236037;28;20561;-77
2023/06/18 10:09:00;;;;;;;12.60;9.68;;;;;;;;;;6235644;28;20296;-78
2023/06/18 10:12:06;;;;;;;10.35;9.05;;;;;;;;;;6236732;28;20513;-77
2023/06/18 10:15:13;;;;;;;11.30;9.30;;;;;;;;;;6236815;28;20296;-77
2023/06/18 10:18:22;;;;;;;12.07;9.70;;;;;;;;;;6220465;28;20296;-78
2023/06/18 10:21:29;;;;;;;10.15;9.15;;;;;;;;;;6237221;28;20320;-77
2023/06/18 10:24:37;;;;;;;12.70;9.40;;;;;;;;;;6234641;28;20288;-75
2023/06/18 10:27:42;;;;;;;10.90;9.68;;;;;;;;;;6235505;28;20240;-76
2023/06/18 10:30:48;;;;;;;15.13;10.25;;;;;;;;;;6235452;28;20295;-76
2023/06/18 10:33:53;;;;;;;13.80;9.73;;;;;;;;;;6235136;28;20292;-78
2023/06/18 10:36:59;;;;;;;13.40;9.60;;;;;;;;;;6235785;28;20237;-77
2023/06/18 10:40:08;;;;;;;14.15;10.02;;;;;;;;;;6239526;28;20300;-76
2023/06/18 10:43:27;;;;;;;11.32;10.10;;;;;;;;;;6239705;28;20308;-75
2023/06/18 10:46:34;;;;;;;21.27;10.27;;;;;;;;;;6219909;28;20237;-76
2023/06/18 10:49:38;;;;;;;13.68;10.00;;;;;;;;;;6234823;28;20293;-75
2023/06/18 10:52:49;;;;;;;11.93;9.93;;;;;;;;;;6235121;28;20245;-78
2023/06/18 10:55:58;;;;;;;21.13;10.75;;;;;;;;;;6234209;28;20596;-75
2023/06/18 10:59:03;;;;;;;18.75;10.48;;;;;;;;;;6238213;28;20292;-77
2023/06/18 11:02:09;;;;;;;14.90;10.50;;;;;;;;;;6239450;28;20566;-77
2023/06/18 11:05:32;;;;;;;20.23;10.23;;;;;;;;;;6239602;28;20292;-79
2023/06/18 11:08:38;;;;;;;15.50;10.77;;;;;;;;;;6238680;28;20557;-76
2023/06/18 11:11:51;;;;;;;16.25;10.07;;;;;;;;;;6239698;28;20245;-77
2023/06/18 11:15:16;;;;;;;13.60;10.85;;;;;;;;;;6239137;28;20493;-79
2023/06/18 11:18:25;;;;;;;14.13;10.68;;;;;;;;;;6239052;28;20288;-79
2023/06/18 11:21:31;;;;;;;15.45;11.32;;;;;;;;;;6240209;28;20498;-77
2023/06/18 11:24:35;;;;;;;14.95;11.10;;;;;;;;;;6238960;28;20502;-74
2023/06/18 11:27:41;;;;;;;16.10;11.43;;;;;;;;;;6239801;28;20257;-77
2023/06/18 11:30:51;;;;;;;14.25;10.88;;;;;;;;;;6239011;28;20299;-76
2023/06/18 11:33:58;;;;;;;17.48;11.55;;;;;;;;;;6222102;28;20288;-77
2023/06/18 11:37:04;;;;;;;16.55;11.68;;;;;;;;;;6239733;28;20269;-79
2023/06/18 11:40:10;;;;;;;17.23;11.00;;;;;;;;;;6221276;28;20512;-78
2023/06/18 11:43:14;;;;;;;15.20;10.68;;;;;;;;;;6236792;28;20470;-78
2023/06/18 11:46:30;;;;;;;16.35;11.10;;;;;;;;;;6238984;28;20257;-78
2023/06/18 11:49:36;;;;;;;17.73;11.80;;;;;;;;;;6238943;28;20300;-78
2023/06/18 11:52:41;;;;;;;15.43;11.30;;;;;;;;;;6238372;28;20392;-75
2023/06/18 11:55:46;;;;;;;17.70;11.45;;;;;;;;;;6237600;28;20304;-75
2023/06/18 11:58:50;;;;;;;16.55;10.93;;;;;;;;;;6237869;28;20296;-75
2023/06/18 12:01:57;;;;;;;17.98;11.10;;;;;;;;;;6238005;28;20257;-77
2023/06/18 12:05:04;;;;;;;17.83;11.00;;;;;;;;;;6238825;28;20309;-76
2023/06/18 12:08:11;;;;;;;19.60;11.60;;;;;;;;;;6221554;28;20281;-78
2023/06/18 12:11:27;;;;;;;14.63;10.57;;;;;;;;;;6237132;28;20249;-78
2023/06/18 12:14:35;;;;;;;17.67;11.93;;;;;;;;;;6237036;28;20312;-78
2023/06/18 12:17:47;;;;;;;25.48;11.70;;;;;;;;;;6238135;28;20332;-80
2023/06/18 12:20:53;;;;;;;20.70;11.55;;;;;;;;;;6237627;28;20289;-78
2023/06/18 12:23:58;;;;;;;17.50;11.60;;;;;;;;;;6236882;28;20300;-78
2023/06/18 12:27:03;;;;;;;19.73;11.38;;;;;;;;;;6237774;28;20245;-76
2023/06/18 12:30:09;;;;;;;21.77;11.75;;;;;;;;;;6237481;28;20320;-75
2023/06/18 12:33:15;;;;;;;24.90;12.45;;;;;;;;;;6238067;28;20317;-77
2023/06/18 12:36:29;;;;;;;16.73;11.90;;;;;;;;;;6238312;28;20245;-76
2023/06/18 12:39:34;;;;;;;21.17;12.60;;;;;;;;;;6238004;28;20301;-75
2023/06/18 12:42:42;;;;;;;17.35;12.60;;;;;;;;;;6237674;28;20241;-74
2023/06/18 12:45:48;;;;;;;22.02;12.82;;;;;;;;;;6237443;28;20297;-73
2023/06/18 12:48:54;;;;;;;18.58;12.23;;;;;;;;;;6236567;28;20295;-73
2023/06/18 12:52:00;;;;;;;23.98;11.85;;;;;;;;;;6237165;28;20241;-75
2023/06/18 12:55:05;;;;;;;23.10;12.32;;;;;;;;;;6237004;28;20565;-76
2023/06/18 12:58:17;;;;;;;22.25;12.73;;;;;;;;;;6235986;28;20260;-76
2023/06/18 13:01:23;;;;;;;20.58;12.18;;;;;;;;;;6237135;28;20260;-77
2023/06/18 13:04:27;;;;;;;18.08;12.40;;;;;;;;;;6236548;28;20296;-76
2023/06/18 13:07:33;;;;;;;21.90;13.52;;;;;;;;;;6236997;28;20407;-77
2023/06/18 13:10:38;;;;;;;19.40;12.75;;;;;;;;;;6236502;28;20299;-77
2023/06/18 13:13:43;;;;;;;20.35;12.52;;;;;;;;;;6236222;28;20297;-77
2023/06/18 13:16:48;;;;;;;21.23;12.00;;;;;;;;;;6236400;28;20233;-77
2023/06/18 13:19:53;;;;;;;16.73;12.55;;;;;;;;;;6235737;28;20584;-77
2023/06/18 13:23:05;;;;;;;21.25;12.93;;;;;;;;;;6233707;28;20272;-77
2023/06/18 13:26:09;;;;;;;20.92;13.55;;;;;;;;;;6236619;28;20246;-75
2023/06/18 13:29:14;;;;;;;21.75;12.98;;;;;;;;;;6234320;28;20307;-77
2023/06/18 13:32:18;;;;;;;20.27;13.02;;;;;;;;;;6236526;28;20252;-77
2023/06/18 13:35:24;;;;;;;19.60;12.77;;;;;;;;;;6235939;28;20300;-78
2023/06/18 13:38:30;;;;;;;22.02;13.18;;;;;;;;;;6235948;28;20300;-77
2023/06/18 13:41:35;;;;;;;24.30;13.45;;;;;;;;;;6236836;28;20245;-77
2023/06/18 13:44:58;;;;;;;22.25;12.43;;;;;;;;;;6236631;28;20296;-77
2023/06/18 13:48:04;;;;;;;18.85;13.00;;;;;;;;;;6236663;28;20254;-78
2023/06/18 13:51:09;;;;;;;22.08;12.73;;;;;;;;;;6218678;28;20273;-80
2023/06/18 13:54:15;;;;;;;24.92;13.63;;;;;;;;;;6236056;28;20512;-76
2023/06/18 13:57:20;;;;;;;21.80;12.93;;;;;;;;;;6236303;28;20241;-75
2023/06/18 14:00:25;;;;;;;19.77;12.52;;;;;;;;;;6250387;28;20381;-77
2023/06/18 14:03:30;;;;;;;20.80;13.25;;;;;;;;;;6235364;28;20284;-78
2023/06/18 14:06:35;;;;;;;19.55;12.90;;;;;;;;;;6235883;28;20246;-78
2023/06/18 14:09:41;;;;;;;20.13;13.23;;;;;;;;;;6235878;28;20418;-77
2023/06/18 14:12:46;;;;;;;18.70;12.40;;;;;;;;;;6236150;28;20408;-76
2023/06/18 14:15:51;;;;;;;21.15;13.48;;;;;;;;;;6235328;28;20518;-78
2023/06/18 14:18:56;;;;;;;19.55;12.88;;;;;;;;;;6217522;28;20352;-78
2023/06/18 14:22:00;;;;;;;23.83;13.30;;;;;;;;;;6235796;28;20241;-78
2023/06/18 14:25:07;;;;;;;17.00;12.45;;;;;;;;;;6235077;28;20312;-77
2023/06/18 14:28:11;;;;;;;18.02;12.80;;;;;;;;;;6217638;28;20276;-77
2023/06/18 14:31:16;;;;;;;23.80;12.88;;;;;;;;;;6235701;28;20241;-77
2023/06/18 14:34:21;;;;;;;24.02;14.02;;;;;;;;;;6235145;28;20300;-77
2023/06/18 14:37:25;;;;;;;19.60;13.80;;;;;;;;;;6237634;28;20237;-77
2023/06/18 14:40:31;;;;;;;21.73;13.57;;;;;;;;;;6235794;28;20292;-77
2023/06/18 14:43:37;;;;;;;21.77;12.48;;;;;;;;;;6235395;28;20470;-79
2023/06/18 14:46:42;;;;;;;22.00;13.98;;;;;;;;;;6235000;28;20545;-77
2023/06/18 14:49:52;;;;;;;21.08;13.73;;;;;;;;;;6234663;28;20296;-77
2023/06/18 14:52:57;;;;;;;20.38;13.55;;;;;;;;;;6234531;28;20261;-76
2023/06/18 14:56:03;;;;;;;28.10;13.63;;;;;;;;;;6235307;28;20244;-76
2023/06/18 14:59:08;;;;;;;23.63;13.95;;;;;;;;;;6234898;28;20292;-78
2023/06/18 15:02:13;;;;;;;21.90;14.10;;;;;;;;;;6235166;28;20312;-78
2023/06/18 15:05:32;;;;;;;18.55;13.13;;;;;;;;;;6237507;28;20289;-78
2023/06/18 15:08:37;;;;;;;24.45;14.05;;;;;;;;;;6237372;28;20296;-77
2023/06/18 15:11:43;;;;;;;19.10;13.25;;;;;;;;;;6235013;28;20269;-77
2023/06/18 15:14:48;;;;;;;24.60;14.35;;;;;;;;;;6234562;28;20304;-78
2023/06/18 15:17:52;;;;;;;24.88;14.38;;;;;;;;;;6234909;28;20322;-78
2023/06/18 15:20:57;;;;;;;24.70;14.20;;;;;;;;;;6234232;28;20265;-77
2023/06/18 15:24:02;;;;;;;25.00;14.40;;;;;;;;;;6216661;28;20288;-79
2023/06/18 15:27:08;;;;;;;23.10;14.13;;;;;;;;;;6234785;28;20261;-77
2023/06/18 15:30:14;;;;;;;25.75;14.77;;;;;;;;;;6234338;28;20296;-77
2023/06/18 15:33:19;;;;;;;21.95;13.45;;;;;;;;;;6235055;28;20292;-78
2023/06/18 15:36:23;;;;;;;27.58;14.73;;;;;;;;;;6234603;28;20435;-78
2023/06/18 15:39:28;;;;;;;21.08;13.82;;;;;;;;;;6234025;28;20293;-78
2023/06/18 15:42:34;;;;;;;23.58;13.73;;;;;;;;;;6234612;28;20249;-78
2023/06/18 15:45:39;;;;;;;24.10;14.75;;;;;;;;;;6236205;28;20295;-78
2023/06/18 15:48:44;;;;;;;20.15;14.35;;;;;;;;;;6238369;28;20295;-78
2023/06/18 15:51:49;;;;;;;25.13;14.68;;;;;;;;;;6240371;28;20237;-78
2023/06/18 15:54:53;;;;;;;20.30;14.68;;;;;;;;;;6238777;28;20361;-77
2023/06/18 15:57:59;;;;;;;26.25;15.15;;;;;;;;;;6238061;28;20229;-78
2023/06/18 16:01:04;;;;;;;29.33;18.70;;;;;;;;;;6238331;28;20265;-78
2023/06/18 16:04:09;;;;;;;30.15;18.55;;;;;;;;;;6237736;28;20304;-78
2023/06/18 16:07:14;;;;;;;26.67;14.57;;;;;;;;;;6239188;28;20268;-78
2023/06/18 16:10:19;;;;;;;43.05;29.95;;;;;;;;;;6238042;28;20304;-78
2023/06/18 16:13:25;;;;;;;24.13;14.23;;;;;;;;;;6239270;28;20598;-76
2023/06/18 16:16:30;;;;;;;19.48;13.40;;;;;;;;;;6238298;28;20406;-79
2023/06/18 16:19:34;;;;;;;24.73;13.32;;;;;;;;;;6237804;28;20296;-78
2023/06/18 16:22:40;;;;;;;20.27;13.68;;;;;;;;;;6237931;28;20241;-77
2023/06/18 16:25:44;;;;;;;24.58;12.98;;;;;;;;;;6237639;28;20308;-78
2023/06/18 16:28:50;;;;;;;24.50;13.10;;;;;;;;;;6237554;28;20423;-77
2023/06/18 16:31:55;;;;;;;21.30;12.55;;;;;;;;;;6252748;28;20280;-77
2023/06/18 16:35:00;;;;;;;23.65;13.20;;;;;;;;;;6237737;28;20479;-77
2023/06/18 16:38:04;;;;;;;21.42;12.38;;;;;;;;;;6237225;28;20538;-78
2023/06/18 16:41:09;;;;;;;22.77;13.40;;;;;;;;;;6238270;28;20253;-77
2023/06/18 16:44:15;;;;;;;23.45;13.30;;;;;;;;;;6237320;28;20312;-78
2023/06/18 16:47:19;;;;;;;21.63;12.63;;;;;;;;;;6237778;28;20272;-75
2023/06/18 16:50:25;;;;;;;25.70;13.98;;;;;;;;;;6237152;28;20292;-79
2023/06/18 16:53:30;;;;;;;23.15;14.20;;;;;;;;;;6237171;28;20292;-77
2023/06/18 16:56:35;;;;;;;26.60;14.45;;;;;;;;;;6237068;28;20241;-77
2023/06/18 16:59:41;;;;;;;22.73;13.05;;;;;;;;;;6237118;28;20300;-77
2023/06/18 17:02:45;;;;;;;23.48;13.40;;;;;;;;;;6236915;28;20292;-78
2023/06/18 17:05:51;;;;;;;18.27;13.10;;;;;;;;;;6236729;28;20300;-76
2023/06/18 17:08:58;;;;;;;18.48;13.07;;;;;;;;;;6237220;28;20584;-77
2023/06/18 17:12:03;;;;;;;19.83;13.02;;;;;;;;;;6238123;28;20266;-78
2023/06/18 17:15:10;;;;;;;20.10;12.73;;;;;;;;;;6237386;28;20557;-77
2023/06/18 17:18:15;;;;;;;23.67;13.05;;;;;;;;;;6219508;28;20501;-79
2023/06/18 17:21:20;;;;;;;26.30;13.57;;;;;;;;;;6237979;28;20245;-77
2023/06/18 17:24:25;;;;;;;23.63;12.73;;;;;;;;;;6237400;28;20296;-74
2023/06/18 17:27:29;;;;;;;22.08;12.63;;;;;;;;;;6236358;28;20261;-76
2023/06/18 17:30:35;;;;;;;20.52;12.75;;;;;;;;;;6236322;28;20300;-76
2023/06/18 17:33:41;;;;;;;19.75;12.40;;;;;;;;;;6236861;28;20292;-75
2023/06/18 17:36:46;;;;;;;23.38;12.63;;;;;;;;;;6236278;28;20253;-76
2023/06/18 17:39:51;;;;;;;20.35;11.75;;;;;;;;;;6236032;28;20288;-76
2023/06/18 17:42:56;;;;;;;21.13;12.93;;;;;;;;;;6236087;28;20241;-75
2023/06/18 17:46:15;;;;;;;23.02;12.00;;;;;;;;;;6235219;28;20308;-76
2023/06/18 17:49:20;;;;;;;18.50;12.13;;;;;;;;;;6235629;28;20308;-76
2023/06/18 17:52:24;;;;;;;21.85;12.00;;;;;;;;;;6236010;28;20241;-75
2023/06/18 17:55:30;;;;;;;17.00;12.02;;;;;;;;;;6235591;28;20508;-76
2023/06/18 17:58:36;;;;;;;17.88;11.80;;;;;;;;;;6250328;28;20284;-76
2023/06/18 18:01:42;;;;;;;21.35;12.38;;;;;;;;;;6236342;28;20253;-74
2023/06/18 18:04:46;;;;;;;16.63;11.35;;;;;;;;;;6187057;28;20297;-75
2023/06/18 18:07:52;;;;;;;19.27;11.80;;;;;;;;;;6186844;28;20310;-76
2023/06/18 18:10:57;;;;;;;18.05;11.88;;;;;;;;;;6187622;28;20301;-77
2023/06/18 18:14:02;;;;;;;19.48;11.48;;;;;;;;;;6187472;28;20302;-77